This demonstration page uses our WeatherBlox Daily Observations layout. Learn more.

41.55636, -103.73856

Hourly Observations for January 18, 2019

Temp ( °F °C ) Dew Point ( °F °C ) Humidity (%) Winds ( mph kmh ) Pressure ( in mb ) Visibility ( mi km ) Precip ( " mm )
12:58 am 00:58 Mostly Cloudy 46 7.5 21 -6.3 37 37 SSE 5 7 29.86 1011 10 16.0934 N/A
1:58 am 01:58 Cloudy 44 6.7 20 -6.5 39 39 Calm 29.86 1011 10 16.0934 N/A
2:58 am 02:58 Cloudy 40 4.7 26 -3.3 57 57 N 8 13 29.87 1012 10 16.0934 N/A
3:58 am 03:58 Cloudy 38 3.4 28 -2.2 67 67 NNW 6 9 29.83 1010 10 16.0934 N/A
4:58 am 04:58 Cloudy 39 4.1 30 -1.2 69 69 Calm 29.8 1009 10 16.0934 N/A
5:58 am 05:58 Mostly Cloudy 38 3.2 30 -1 74 74 ENE 6 9 29.75 1007 10 16.0934 N/A
6:58 am 06:58 Clear 36 2.4 30 -1.1 78 78 SE 5 7 29.73 1007 10 16.0934 N/A
7:58 am 07:58 Mostly Clear 33 0.6 29 -1.9 84 84 Calm 29.71 1006 10 16.0934 N/A
8:58 am 08:58 Mostly Clear 32 -0.1 28 -2.3 85 85 WNW 7 11 29.73 1007 10 16.0934 N/A
9:58 am 09:58 Mostly Clear 34 0.9 27 -2.7 77 77 WNW 15 24 29.73 1007 10 16.0934 N/A
10:58 am 10:58 Clear 34 1.1 26 -3.2 73 73 WNW 16 26 29.7 1006 10 16.0934 N/A
11:58 am 11:58 Mostly Clear 32 0.2 25 -3.9 74 74 WNW 18 30 29.72 1006 10 16.0934 N/A
12:58 pm 12:58 Mostly Cloudy 32 0 26 -3.4 78 78 WNW 15 24 29.7 1006 10 16.0934 N/A
1:58 pm 13:58 Clear 31 -0.7 26 -3.4 82 82 NW 15 24 29.74 1007 10 16.0934 N/A
2:58 pm 14:58 Mostly Sunny 33 0.3 26 -3.2 78 78 NNW 20 31 29.8 1009 10 16.0934 N/A
3:58 pm 15:58 Mostly Cloudy 30 -1.1 27 -2.7 89 89 N 22 35 29.87 1012 10 16.0934 N/A
4:58 pm 16:58 Mostly Cloudy with Snow 27 -3 25 -3.8 94 94 N 20 31 29.93 1013 0.5 0.80467 N/A
5:56 pm 17:56 Mostly Cloudy with Scattered Snow Showers 27 -2.9 25 -3.7 94 94 N 20 31 29.97 1015 0.5 0.80467 N/A
6:56 pm 18:56 Mostly Cloudy with Light Snow Showers 26 -3.2 25 -3.9 95 95 N 17 28 29.98 1015 5 8.0467 N/A
7:58 pm 19:58 Windy with Snow Showers Likely 27 -2.7 26 -3.5 94 94 N 24 39 30 1016 10 16.0934 N/A
8:58 pm 20:58 Cloudy 27 -2.6 26 -3.5 94 94 NNW 23 37 30.04 1017 10 16.0934 N/A
9:58 pm 21:58 Cloudy 28 -2.1 25 -3.9 88 88 NNW 22 35 30.06 1018 10 16.0934 N/A
10:58 pm 22:58 Mostly Cloudy 29 -1.6 25 -3.9 85 85 NNW 24 39 30.08 1019 10 16.0934 N/A
11:58 pm 23:58 Mostly Cloudy 29 -1.8 24 -4.7 81 81 N 24 39 30.11 1020 10 16.0934 N/A

Powered by AerisWeather